createdAt,value
2018-09-25T00:00:06.518Z,1.67
2018-09-25T00:02:40.990Z,1.97
2018-09-25T00:05:15.429Z,1.87
2018-09-25T00:07:49.701Z,1.67
2018-09-25T00:10:24.197Z,1.60
2018-09-25T00:12:58.691Z,2.10
2018-09-25T00:15:33.154Z,2.00
2018-09-25T00:18:07.548Z,2.40
2018-09-25T00:20:41.837Z,2.57
2018-09-25T00:23:16.208Z,3.03
2018-09-25T00:25:50.547Z,3.03
2018-09-25T00:28:25.050Z,2.80
2018-09-25T00:30:59.431Z,2.90
2018-09-25T00:33:50.705Z,2.70
2018-09-25T00:36:25.171Z,2.40
2018-09-25T00:38:59.478Z,2.30
2018-09-25T00:41:33.990Z,1.97
2018-09-25T00:44:08.304Z,2.77
2018-09-25T00:46:42.838Z,2.20
2018-09-25T00:49:17.118Z,2.27
2018-09-25T00:51:51.598Z,1.80
2018-09-25T00:54:25.875Z,2.07
2018-09-25T00:57:00.562Z,2.60
2018-09-25T00:59:34.918Z,2.60
2018-09-25T01:02:09.787Z,2.60
2018-09-25T01:04:44.050Z,2.53
2018-09-25T01:07:18.491Z,2.20
2018-09-25T01:09:52.886Z,1.93
2018-09-25T01:12:27.345Z,2.47
2018-09-25T01:15:01.554Z,2.10
2018-09-25T01:17:35.965Z,2.03
2018-09-25T01:20:10.579Z,1.67
2018-09-25T01:22:44.870Z,1.10
2018-09-25T01:25:19.266Z,1.50
2018-09-25T01:27:53.506Z,1.20
2018-09-25T01:30:28.007Z,1.40
2018-09-25T01:33:02.343Z,1.00
2018-09-25T01:35:36.686Z,1.37
2018-09-25T01:38:11.236Z,1.30
2018-09-25T01:40:45.566Z,1.57
2018-09-25T01:43:19.919Z,1.43
2018-09-25T01:45:54.187Z,1.50
2018-09-25T01:48:28.623Z,1.70
2018-09-25T01:51:03.018Z,1.57
2018-09-25T01:53:37.492Z,1.47
2018-09-25T01:56:11.880Z,1.97
2018-09-25T01:58:46.276Z,1.80
2018-09-25T02:01:20.471Z,1.60
2018-09-25T02:03:54.711Z,1.60
2018-09-25T02:06:29.119Z,1.40
2018-09-25T02:09:03.450Z,1.30
2018-09-25T02:11:37.824Z,1.53
2018-09-25T02:14:12.239Z,1.70
2018-09-25T02:16:46.683Z,1.60
2018-09-25T02:19:21.166Z,1.70
2018-09-25T02:21:55.615Z,1.60
2018-09-25T02:24:29.883Z,1.60
2018-09-25T02:27:04.199Z,1.57
2018-09-25T02:29:38.741Z,1.77
2018-09-25T02:32:13.410Z,2.07
2018-09-25T02:34:47.828Z,1.73
2018-09-25T02:37:22.168Z,2.27
2018-09-25T02:39:56.471Z,2.10
2018-09-25T02:42:30.992Z,1.90
2018-09-25T02:45:05.458Z,1.47
2018-09-25T02:47:39.678Z,2.03
2018-09-25T02:50:14.312Z,1.40
2018-09-25T02:52:48.679Z,1.80
2018-09-25T02:55:23.003Z,2.03
2018-09-25T02:57:57.492Z,1.73
2018-09-25T03:00:32.058Z,1.87
2018-09-25T03:03:06.437Z,1.83
2018-09-25T03:05:41.052Z,1.80
2018-09-25T03:08:15.493Z,2.13
2018-09-25T03:10:49.991Z,2.00
2018-09-25T03:13:24.274Z,2.07
2018-09-25T03:15:58.516Z,1.80
2018-09-25T03:18:32.860Z,1.90
2018-09-25T03:21:07.384Z,1.90
2018-09-25T03:23:41.905Z,1.60
2018-09-25T03:26:16.376Z,1.57
2018-09-25T03:28:51.004Z,1.80
2018-09-25T03:31:25.251Z,1.43
2018-09-25T03:33:59.487Z,1.70
2018-09-25T03:36:33.937Z,1.90
2018-09-25T03:39:08.454Z,2.00
2018-09-25T03:41:43.006Z,1.70
2018-09-25T03:44:17.425Z,1.47
2018-09-25T03:46:51.807Z,2.03
2018-09-25T03:49:26.079Z,2.20
2018-09-25T03:52:00.948Z,2.30
2018-09-25T03:54:35.296Z,2.60
2018-09-25T03:57:09.580Z,2.20
2018-09-25T03:59:44.083Z,2.30
2018-09-25T04:02:18.339Z,2.43
2018-09-25T04:04:52.615Z,2.20
2018-09-25T04:07:26.804Z,2.20
2018-09-25T04:10:01.276Z,2.67
2018-09-25T04:12:35.700Z,2.47
2018-09-25T04:15:10.011Z,2.63
2018-09-25T04:17:44.155Z,2.67
2018-09-25T04:20:18.393Z,2.87
2018-09-25T04:22:52.718Z,3.43
2018-09-25T04:25:27.082Z,3.00
2018-09-25T04:28:01.565Z,2.93
2018-09-25T04:30:35.995Z,3.33
2018-09-25T04:33:10.636Z,3.37
2018-09-25T04:35:45.027Z,3.27
2018-09-25T04:38:19.322Z,2.93
2018-09-25T04:40:53.811Z,2.87
2018-09-25T04:43:28.283Z,3.40
2018-09-25T04:46:02.779Z,3.43
2018-09-25T04:48:37.246Z,3.03
2018-09-25T04:51:11.808Z,2.80
2018-09-25T04:53:46.310Z,3.23
2018-09-25T04:56:20.746Z,2.87
2018-09-25T04:58:55.172Z,3.43
2018-09-25T05:01:29.799Z,3.60
2018-09-25T05:04:04.465Z,3.33
2018-09-25T05:06:39.031Z,3.57
2018-09-25T05:09:13.466Z,2.97
2018-09-25T05:11:47.811Z,2.63
2018-09-25T05:14:22.227Z,3.13
2018-09-25T05:16:56.762Z,3.40
2018-09-25T05:19:30.963Z,3.20
2018-09-25T05:22:05.491Z,3.53
2018-09-25T05:24:39.829Z,3.77
2018-09-25T05:27:14.136Z,3.37
2018-09-25T05:29:48.363Z,3.40
2018-09-25T05:32:22.729Z,3.70
2018-09-25T05:34:57.429Z,3.30
2018-09-25T05:37:31.861Z,3.63
2018-09-25T05:40:09.235Z,3.70
2018-09-25T05:42:43.499Z,3.87
2018-09-25T05:45:17.853Z,3.03
2018-09-25T05:47:58.503Z,3.70
2018-09-25T05:50:32.779Z,3.87
2018-09-25T05:53:07.348Z,4.23
2018-09-25T05:55:41.902Z,3.73
2018-09-25T05:58:16.182Z,3.30
2018-09-25T06:00:50.545Z,3.60
2018-09-25T06:03:24.795Z,3.60
2018-09-25T06:05:59.536Z,3.63
2018-09-25T06:08:33.878Z,3.40
2018-09-25T06:11:08.375Z,3.80
2018-09-25T06:13:42.671Z,4.70
2018-09-25T06:16:17.038Z,4.17
2018-09-25T06:18:51.492Z,4.10
2018-09-25T06:21:25.824Z,3.90
2018-09-25T06:24:00.334Z,4.13
2018-09-25T06:26:34.766Z,4.13
2018-09-25T06:29:09.172Z,3.83
2018-09-25T06:31:43.471Z,3.20
2018-09-25T06:34:17.839Z,4.50
2018-09-25T06:36:52.149Z,3.37
2018-09-25T06:39:26.543Z,3.67
2018-09-25T06:42:00.796Z,4.60
2018-09-25T06:44:35.157Z,3.67
2018-09-25T06:47:09.679Z,3.90
2018-09-25T06:49:44.102Z,3.73
2018-09-25T06:52:18.430Z,4.10
2018-09-25T06:54:52.766Z,7.70
2018-09-25T06:57:27.119Z,3.73
2018-09-25T07:00:01.272Z,4.37
2018-09-25T07:02:35.627Z,4.37
2018-09-25T07:05:10.012Z,4.67
2018-09-25T07:07:44.247Z,4.37
2018-09-25T07:10:18.734Z,4.10
2018-09-25T07:12:52.960Z,4.03
2018-09-25T07:15:27.603Z,4.03
2018-09-25T07:18:02.201Z,4.53
2018-09-25T07:20:36.443Z,4.77
2018-09-25T07:23:10.906Z,4.13
2018-09-25T07:25:45.250Z,4.20
2018-09-25T07:28:20.186Z,4.17
2018-09-25T07:30:54.639Z,4.00
2018-09-25T07:33:28.908Z,4.30
2018-09-25T07:36:03.246Z,4.60
2018-09-25T07:38:37.806Z,3.83
2018-09-25T07:41:12.514Z,4.10
2018-09-25T07:43:47.050Z,4.57
2018-09-25T07:46:21.299Z,4.00
2018-09-25T07:48:56.022Z,3.90
2018-09-25T07:51:30.355Z,4.20
2018-09-25T07:54:04.770Z,4.43
2018-09-25T07:56:39.271Z,4.13
2018-09-25T07:59:13.859Z,3.87
2018-09-25T08:01:48.108Z,4.33
2018-09-25T08:04:22.295Z,4.50
2018-09-25T08:06:56.586Z,5.30
2018-09-25T08:09:30.959Z,5.03
2018-09-25T08:12:05.161Z,5.77
2018-09-25T08:14:39.397Z,5.87
2018-09-25T08:17:14.024Z,6.80
2018-09-25T08:19:48.554Z,5.93
2018-09-25T08:22:22.762Z,6.43
2018-09-25T08:24:57.149Z,5.77
2018-09-25T08:27:31.535Z,5.20
2018-09-25T08:30:05.876Z,4.80
2018-09-25T08:32:40.099Z,4.83
2018-09-25T08:35:14.453Z,4.00
2018-09-25T08:37:48.761Z,3.97
2018-09-25T08:40:23.104Z,4.67
2018-09-25T08:42:57.398Z,3.33
2018-09-25T08:45:31.692Z,3.30
2018-09-25T08:48:06.210Z,3.43
2018-09-25T08:50:40.620Z,3.40
2018-09-25T08:53:14.820Z,3.50
2018-09-25T08:55:49.218Z,3.50
2018-09-25T08:58:23.631Z,4.03
2018-09-25T09:00:58.187Z,4.87
2018-09-25T09:03:32.448Z,4.20
2018-09-25T09:06:06.854Z,3.67
2018-09-25T09:08:41.568Z,3.00
2018-09-25T09:11:16.067Z,2.87
2018-09-25T09:13:50.429Z,2.83
2018-09-25T09:16:24.983Z,2.83
2018-09-25T09:18:59.458Z,2.83
2018-09-25T09:21:34.206Z,3.30
2018-09-25T09:24:08.588Z,2.77
2018-09-25T09:26:42.833Z,2.97
2018-09-25T09:29:17.133Z,2.60
2018-09-25T09:31:51.743Z,2.63
2018-09-25T09:34:25.994Z,2.43
2018-09-25T09:37:00.475Z,3.00
2018-09-25T09:39:34.820Z,2.80
2018-09-25T09:42:09.440Z,1.83
2018-09-25T09:44:44.036Z,3.20
2018-09-25T09:47:18.377Z,2.50
2018-09-25T09:49:52.755Z,2.67
2018-09-25T09:52:27.349Z,1.90
2018-09-25T09:55:01.985Z,1.90
2018-09-25T09:57:36.326Z,1.20
2018-09-25T10:00:10.920Z,1.40
2018-09-25T10:02:45.235Z,1.50
2018-09-25T10:05:19.428Z,1.97
2018-09-25T10:07:53.673Z,1.77
2018-09-25T10:10:28.016Z,1.70
2018-09-25T10:13:02.317Z,1.73
2018-09-25T10:15:36.575Z,2.33
2018-09-25T10:18:11.124Z,2.30
2018-09-25T10:20:45.444Z,2.40
2018-09-25T10:23:19.954Z,2.20
2018-09-25T10:25:54.336Z,2.53
2018-09-25T10:28:28.817Z,3.13
2018-09-25T10:31:03.094Z,2.60
2018-09-25T10:33:37.353Z,2.33
2018-09-25T10:36:11.802Z,3.23
2018-09-25T10:38:46.317Z,2.90
2018-09-25T10:41:20.496Z,3.83
2018-09-25T10:43:54.930Z,3.77
2018-09-25T10:46:29.260Z,4.33
2018-09-25T10:49:03.735Z,3.23
2018-09-25T10:51:38.012Z,2.80
2018-09-25T10:54:12.515Z,3.10
2018-09-25T10:56:46.724Z,1.60
2018-09-25T10:59:21.116Z,1.57
2018-09-25T11:01:55.454Z,1.40
2018-09-25T11:04:29.820Z,1.10
2018-09-25T11:07:04.171Z,1.70
2018-09-25T11:09:38.537Z,1.53
2018-09-25T11:12:12.838Z,2.17
2018-09-25T11:14:47.153Z,1.90
2018-09-25T11:17:21.622Z,2.60
2018-09-25T11:19:56.064Z,2.17
2018-09-25T11:22:30.428Z,3.40
2018-09-25T11:25:04.927Z,4.00
2018-09-25T11:27:39.065Z,5.30
2018-09-25T11:30:13.582Z,3.20
2018-09-25T11:32:47.952Z,3.40
2018-09-25T11:35:22.580Z,2.33
2018-09-25T11:37:56.863Z,2.60
2018-09-25T11:40:31.179Z,2.40
2018-09-25T11:43:05.499Z,3.50
2018-09-25T11:45:39.769Z,3.00
2018-09-25T11:48:14.360Z,3.00
2018-09-25T11:50:48.864Z,2.57
2018-09-25T11:53:23.296Z,2.00
2018-09-25T11:55:57.668Z,1.60
2018-09-25T11:58:32.014Z,1.57
2018-09-25T12:01:06.356Z,1.87
2018-09-25T12:03:40.772Z,1.90
2018-09-25T12:06:15.264Z,1.53
2018-09-25T12:08:49.655Z,1.33
2018-09-25T12:11:24.008Z,1.30
2018-09-25T12:13:58.199Z,1.00
2018-09-25T12:16:32.639Z,1.20
2018-09-25T12:19:07.156Z,1.40
2018-09-25T12:21:41.463Z,1.60
2018-09-25T12:24:15.798Z,2.17
2018-09-25T12:26:50.260Z,2.00
2018-09-25T12:29:24.525Z,2.20
2018-09-25T12:31:58.775Z,1.90
2018-09-25T12:34:33.062Z,2.10
2018-09-25T12:37:07.447Z,2.03
2018-09-25T12:39:41.805Z,10.67
2018-09-25T12:42:16.047Z,7.63
2018-09-25T12:44:50.442Z,7.10
2018-09-25T12:47:24.884Z,1.90
2018-09-25T12:49:59.351Z,1.40
2018-09-25T12:52:33.684Z,1.50
2018-09-25T12:55:07.989Z,1.30
2018-09-25T12:57:42.511Z,1.40
2018-09-25T13:00:16.900Z,1.40
2018-09-25T13:02:51.130Z,1.40
2018-09-25T13:05:25.540Z,2.17
2018-09-25T13:07:59.784Z,1.67
2018-09-25T13:10:34.027Z,1.70
2018-09-25T13:13:08.270Z,1.13
2018-09-25T13:15:42.459Z,1.37
2018-09-25T13:18:16.783Z,1.70
2018-09-25T13:20:51.113Z,1.40
2018-09-25T13:23:25.503Z,1.53
2018-09-25T13:26:00.237Z,1.00
2018-09-25T13:28:34.781Z,0.90
2018-09-25T13:31:09.019Z,0.93
2018-09-25T13:33:43.323Z,0.77
2018-09-25T13:36:17.807Z,0.50
2018-09-25T13:38:52.259Z,0.90
2018-09-25T13:41:26.720Z,0.57
2018-09-25T13:44:01.026Z,0.90
2018-09-25T13:46:35.534Z,0.70
2018-09-25T13:49:09.999Z,0.60
2018-09-25T13:51:44.363Z,0.60
2018-09-25T13:54:18.616Z,0.57
2018-09-25T13:56:53.125Z,0.73
2018-09-25T13:59:27.475Z,0.80
2018-09-25T14:02:01.891Z,0.90
2018-09-25T14:04:36.312Z,0.60
2018-09-25T14:07:10.552Z,0.90
2018-09-25T14:09:44.830Z,0.87
2018-09-25T14:12:19.143Z,1.23
2018-09-25T14:14:53.455Z,1.20
2018-09-25T14:17:27.680Z,0.57
2018-09-25T14:20:01.984Z,0.63
2018-09-25T14:22:36.294Z,0.60
2018-09-25T14:25:10.792Z,0.60
2018-09-25T14:27:45.262Z,0.77
2018-09-25T14:30:19.652Z,0.73
2018-09-25T14:32:54.012Z,0.60
2018-09-25T14:35:28.264Z,0.77
2018-09-25T14:38:02.555Z,0.80
2018-09-25T14:40:36.919Z,0.80
2018-09-25T14:43:11.291Z,0.73
2018-09-25T14:45:45.706Z,0.70
2018-09-25T14:48:20.167Z,0.50
2018-09-25T14:50:54.620Z,0.60
2018-09-25T14:53:29.366Z,0.60
2018-09-25T14:56:03.550Z,0.63
2018-09-25T14:58:38.324Z,1.10
2018-09-25T15:01:12.599Z,0.30
2018-09-25T15:03:46.931Z,0.50
2018-09-25T15:06:21.328Z,0.67
2018-09-25T15:08:55.895Z,0.40
2018-09-25T15:11:30.492Z,0.33
2018-09-25T15:14:04.756Z,1.13
2018-09-25T15:16:38.956Z,0.90
2018-09-25T15:19:13.358Z,0.80
2018-09-25T15:21:47.871Z,0.80
2018-09-25T15:24:22.121Z,0.97
2018-09-25T15:26:56.361Z,0.73
2018-09-25T15:29:30.815Z,0.50
2018-09-25T15:32:05.287Z,0.50
2018-09-25T15:34:39.592Z,0.50
2018-09-25T15:37:13.905Z,0.60
2018-09-25T15:39:48.141Z,1.07
2018-09-25T15:42:22.566Z,0.67
2018-09-25T15:44:56.980Z,0.77
2018-09-25T15:47:31.272Z,0.67
2018-09-25T15:50:05.711Z,0.80
2018-09-25T15:52:40.107Z,1.93
2018-09-25T15:55:14.405Z,2.47
2018-09-25T15:57:48.694Z,11.27
2018-09-25T16:00:22.976Z,2.37
2018-09-25T16:02:57.440Z,0.87
2018-09-25T16:05:31.752Z,0.90
2018-09-25T16:08:06.156Z,0.90
2018-09-25T16:10:40.583Z,0.70
2018-09-25T16:13:14.882Z,0.93
2018-09-25T16:15:49.327Z,0.77
2018-09-25T16:18:23.527Z,1.00
2018-09-25T16:20:58.007Z,0.90
2018-09-25T16:23:32.360Z,0.50
2018-09-25T16:26:06.863Z,0.97
2018-09-25T16:28:41.197Z,0.60
2018-09-25T16:31:15.465Z,0.73
2018-09-25T16:33:49.979Z,0.80
2018-09-25T16:36:24.298Z,0.80
2018-09-25T16:38:58.743Z,0.50
2018-09-25T16:41:33.009Z,0.70
2018-09-25T16:44:07.224Z,0.60
2018-09-25T16:46:41.522Z,0.93
2018-09-25T16:49:15.740Z,0.77
2018-09-25T16:51:50.405Z,0.50
2018-09-25T16:54:24.707Z,0.60
2018-09-25T16:56:59.119Z,0.60
2018-09-25T16:59:33.704Z,0.90
2018-09-25T17:02:08.156Z,0.90
2018-09-25T17:04:42.604Z,1.40
2018-09-25T17:07:16.939Z,0.70
2018-09-25T17:09:51.296Z,1.20
2018-09-25T17:12:25.737Z,0.70
2018-09-25T17:15:00.219Z,1.10
2018-09-25T17:17:34.693Z,0.97
2018-09-25T17:20:09.172Z,0.97
2018-09-25T17:22:43.480Z,1.13
2018-09-25T17:25:17.916Z,1.00
2018-09-25T17:27:52.212Z,1.13
2018-09-25T17:30:26.517Z,0.90
2018-09-25T17:33:00.954Z,0.93
2018-09-25T17:35:35.411Z,0.77
2018-09-25T17:38:09.811Z,0.93
2018-09-25T17:40:44.008Z,0.93
2018-09-25T17:43:18.287Z,1.00
2018-09-25T17:45:52.797Z,0.70
2018-09-25T17:48:27.271Z,0.90
2018-09-25T17:51:01.483Z,1.13
2018-09-25T17:53:35.930Z,1.23
2018-09-25T17:56:10.482Z,0.93
2018-09-25T17:58:45.006Z,1.27
2018-09-25T18:01:19.404Z,1.10
2018-09-25T18:03:53.650Z,1.20
2018-09-25T18:06:27.989Z,0.93
2018-09-25T18:09:02.436Z,1.93
2018-09-25T18:11:36.627Z,1.40
2018-09-25T18:14:17.896Z,2.00
2018-09-25T18:16:52.611Z,2.00
2018-09-25T18:19:27.012Z,1.80
2018-09-25T18:22:01.362Z,1.27
2018-09-25T18:24:35.575Z,1.40
2018-09-25T18:27:10.115Z,1.67
2018-09-25T18:29:44.387Z,1.73
2018-09-25T18:32:18.572Z,2.00
2018-09-25T18:34:52.888Z,1.40
2018-09-25T18:37:27.343Z,1.50
2018-09-25T18:40:01.803Z,2.33
2018-09-25T18:42:37.396Z,1.43
2018-09-25T18:45:15.807Z,1.50
2018-09-25T18:47:50.168Z,1.50
2018-09-25T18:50:24.645Z,1.70
2018-09-25T18:52:58.827Z,2.27
2018-09-25T18:55:33.107Z,2.17
2018-09-25T18:58:07.608Z,2.30
2018-09-25T19:00:42.044Z,2.17
2018-09-25T19:03:16.266Z,2.20
2018-09-25T19:05:50.626Z,1.70
2018-09-25T19:08:25.128Z,2.00
2018-09-25T19:10:59.319Z,1.70
2018-09-25T19:13:33.744Z,1.70
2018-09-25T19:16:08.279Z,1.90
2018-09-25T19:18:42.679Z,2.00
2018-09-25T19:21:16.914Z,1.87
2018-09-25T19:23:51.235Z,2.37
2018-09-25T19:26:25.556Z,1.77
2018-09-25T19:28:59.999Z,2.20
2018-09-25T19:31:34.425Z,2.10
2018-09-25T19:34:08.691Z,2.53
2018-09-25T19:36:43.006Z,2.13
2018-09-25T19:39:17.448Z,2.10
2018-09-25T19:41:51.949Z,2.13
2018-09-25T19:44:26.432Z,2.37
2018-09-25T19:47:00.782Z,2.50
2018-09-25T19:49:35.096Z,2.67
2018-09-25T19:52:09.413Z,2.90
2018-09-25T19:54:43.660Z,2.83
2018-09-25T19:57:17.900Z,2.67
2018-09-25T19:59:52.367Z,1.90
2018-09-25T20:02:26.736Z,2.80
2018-09-25T20:05:01.131Z,3.20
2018-09-25T20:07:35.396Z,2.60
2018-09-25T20:10:10.050Z,3.03
2018-09-25T20:12:44.337Z,3.40
2018-09-25T20:15:18.780Z,3.00
2018-09-25T20:17:53.263Z,2.00
2018-09-25T20:20:27.717Z,2.60
2018-09-25T20:23:02.165Z,2.63
2018-09-25T20:25:36.556Z,2.93
2018-09-25T20:28:10.948Z,2.83
2018-09-25T20:30:45.330Z,3.10
2018-09-25T20:33:19.828Z,2.73
2018-09-25T20:35:54.479Z,2.80
2018-09-25T20:38:28.838Z,2.60
2018-09-25T20:41:03.569Z,2.67
2018-09-25T20:43:37.775Z,2.30
2018-09-25T20:46:12.001Z,3.17
2018-09-25T20:48:46.380Z,3.50
2018-09-25T20:51:20.731Z,2.63
2018-09-25T20:53:55.301Z,2.70
2018-09-25T20:56:29.858Z,2.47
2018-09-25T20:59:04.112Z,2.53
2018-09-25T21:01:38.509Z,2.87
2018-09-25T21:04:12.920Z,3.20
2018-09-25T21:06:47.493Z,3.03
2018-09-25T21:09:21.845Z,2.80
2018-09-25T21:11:56.378Z,3.27
2018-09-25T21:14:30.827Z,3.20
2018-09-25T21:17:05.349Z,3.03
2018-09-25T21:19:39.660Z,3.00
2018-09-25T21:22:14.309Z,3.00
2018-09-25T21:24:49.333Z,2.43
2018-09-25T21:27:23.644Z,3.10
2018-09-25T21:29:57.882Z,3.37
2018-09-25T21:32:32.275Z,3.20
2018-09-25T21:35:06.599Z,2.90
2018-09-25T21:37:41.329Z,3.53
2018-09-25T21:40:15.801Z,3.27
2018-09-25T21:42:50.324Z,3.20
2018-09-25T21:45:24.578Z,3.40
2018-09-25T21:47:59.132Z,2.90
2018-09-25T21:50:33.752Z,3.10
2018-09-25T21:53:08.071Z,3.70
2018-09-25T21:55:42.378Z,3.17
2018-09-25T21:58:16.860Z,2.77
2018-09-25T22:00:51.145Z,2.87
2018-09-25T22:03:25.417Z,3.20
2018-09-25T22:05:59.742Z,3.13
2018-09-25T22:08:34.020Z,2.77
2018-09-25T22:11:08.498Z,3.33
2018-09-25T22:13:42.897Z,3.20
2018-09-25T22:16:17.211Z,2.90
2018-09-25T22:18:51.521Z,3.10
2018-09-25T22:21:25.951Z,3.33
2018-09-25T22:24:00.204Z,3.20
2018-09-25T22:26:34.754Z,2.90
2018-09-25T22:29:09.058Z,2.90
2018-09-25T22:31:43.317Z,3.03
2018-09-25T22:34:17.733Z,3.23
2018-09-25T22:36:52.078Z,3.07
2018-09-25T22:39:26.594Z,3.20
2018-09-25T22:42:00.894Z,3.57
2018-09-25T22:44:35.206Z,3.07
2018-09-25T22:47:09.547Z,3.27
2018-09-25T22:49:43.998Z,3.10
2018-09-25T22:52:18.486Z,2.87
2018-09-25T22:54:53.028Z,3.50
2018-09-25T22:57:27.402Z,3.10
2018-09-25T23:00:01.728Z,3.23
2018-09-25T23:02:35.958Z,3.47
2018-09-25T23:05:10.547Z,2.53
2018-09-25T23:07:44.875Z,3.20
2018-09-25T23:10:19.283Z,3.20
2018-09-25T23:12:53.541Z,2.93
2018-09-25T23:15:27.857Z,3.07
2018-09-25T23:18:02.195Z,3.00
2018-09-25T23:20:36.508Z,3.03
2018-09-25T23:23:10.984Z,3.03
2018-09-25T23:25:45.338Z,3.20
2018-09-25T23:28:19.619Z,3.37
2018-09-25T23:30:54.015Z,3.03
2018-09-25T23:33:28.810Z,3.57
2018-09-25T23:36:03.146Z,3.27
2018-09-25T23:38:37.514Z,3.03
2018-09-25T23:41:12.059Z,3.77
2018-09-25T23:43:51.806Z,3.13
2018-09-25T23:46:28.207Z,2.83
2018-09-25T23:49:03.536Z,2.67
2018-09-25T23:51:37.679Z,3.07
2018-09-25T23:54:43.112Z,2.67
2018-09-25T23:57:14.994Z,3.30
2018-09-25T23:59:53.363Z,3.10
